Hueysville, KY (41640)

1:41 AM EDT on March 27, 2017 (GMT -0400)
Toms Creek rd | | Change Station

Elev 689 ft 37.59 °N, 82.64 °W | Updated 14 seconds ago

Partly Cloudy
Partly Cloudy
55.5 °F
Feels Like 55.5 °F
N
0.0
Wind Variable Wind from North

Today
High -- | Low -- °F
--% Chance of Precip.
Yesterday
High -- | Low -- °F
Precip. -- in
Pressure 30.01 in
Visibility 10.0 miles
Clouds Clear
Dew Point 55 °F
Humidity 98%
Rainfall 0.00 in
Snow Depth Not available.
7:23 AM 7:49 PM
Waning Crescent, 1% visible
METAR KSJS 270535Z AUTO 19004KT 10SM CLR 16/14 A3001 RMK AO2 T01550135
Pressure 30.01 in
Visibility 10.0 miles
Clouds Clear
Dew Point 55 °F
Humidity 98%
Rainfall 0.00 in
Snow Depth Not available.
7:23 AM 7:49 PM
Waning Crescent, 1% visible
METAR KSJS 270535Z AUTO 19004KT 10SM CLR 16/14 A3001 RMK AO2 T01550135

Get Severe Weather Alerts

Thanks for signing up!

Be on the lookout for a verification email in your inbox.

You'll start receiving the daily forecast at 8 AM.

×

10-Day Weather Forecast

Almanac

Astronomy

Mar. 27, 2017 Rise Set
Actual Time
Civil Twilight
Nautical Twilight
Astronomical Twilight
Moon
Length of Visible Light
Length of Day
Tomorrow will be .
, % of the Moon is Illuminated

Today's Extremes

State Highs State Lows

Community

WunderPhotos

Upload Photos

1,962,540 photos uploaded!

WunderBlog® & News

Nearby

Air Quality

  Air Quality AQ Index Pollutant
Not available.

Snow Depth

Station Depth Elevation

Earthquake Activity

City Distance Mag. Time & Date
Minimum magnitude displayed is 2.5.

Earthquake Activity

City Distance Mag. Time & Date
Minimum magnitude displayed is 2.5.

Coastal Water Temperatures

Place Temperature

Stations

Nearby Weather Stations

Station Location Temp. Windchill Dew Point Humidity Wind Precip. Elev Updated Type
                   

Watches & Warnings

There are currently no watches in effect.